sensor_id;sensor_type;location;lat;lon;timestamp;temperature;humidity
14604;DHT22;7388;51.078;13.740;2023-03-01T00:01:33;2.60;36.90
14604;DHT22;7388;51.078;13.740;2023-03-01T00:03:59;2.50;36.70
14604;DHT22;7388;51.078;13.740;2023-03-01T00:06:26;2.40;36.80
14604;DHT22;7388;51.078;13.740;2023-03-01T00:08:52;2.40;37.10
14604;DHT22;7388;51.078;13.740;2023-03-01T00:11:23;2.40;37.30
14604;DHT22;7388;51.078;13.740;2023-03-01T00:13:51;2.40;37.20
14604;DHT22;7388;51.078;13.740;2023-03-01T00:16:21;2.40;36.90
14604;DHT22;7388;51.078;13.740;2023-03-01T00:18:47;2.40;36.80
14604;DHT22;7388;51.078;13.740;2023-03-01T00:21:14;2.30;36.80
14604;DHT22;7388;51.078;13.740;2023-03-01T00:23:40;2.30;37.00
14604;DHT22;7388;51.078;13.740;2023-03-01T00:26:08;2.30;37.10
14604;DHT22;7388;51.078;13.740;2023-03-01T00:28:34;2.30;37.10
14604;DHT22;7388;51.078;13.740;2023-03-01T00:31:04;2.30;37.20
14604;DHT22;7388;51.078;13.740;2023-03-01T00:33:30;2.30;37.10
14604;DHT22;7388;51.078;13.740;2023-03-01T00:35:58;2.20;36.90
14604;DHT22;7388;51.078;13.740;2023-03-01T00:38:24;2.20;36.90
14604;DHT22;7388;51.078;13.740;2023-03-01T00:40:49;2.20;37.00
14604;DHT22;7388;51.078;13.740;2023-03-01T00:43:15;2.20;37.00
14604;DHT22;7388;51.078;13.740;2023-03-01T00:45:41;2.20;37.20
14604;DHT22;7388;51.078;13.740;2023-03-01T00:48:06;2.10;37.20
14604;DHT22;7388;51.078;13.740;2023-03-01T00:50:32;2.10;37.10
14604;DHT22;7388;51.078;13.740;2023-03-01T00:52:58;2.20;37.10
14604;DHT22;7388;51.078;13.740;2023-03-01T00:55:25;2.20;37.00
14604;DHT22;7388;51.078;13.740;2023-03-01T00:57:51;2.20;36.90
14604;DHT22;7388;51.078;13.740;2023-03-01T01:00:18;2.10;36.90
14604;DHT22;7388;51.078;13.740;2023-03-01T01:02:44;2.10;36.80
14604;DHT22;7388;51.078;13.740;2023-03-01T01:05:11;2.10;36.90
14604;DHT22;7388;51.078;13.740;2023-03-01T01:07:37;2.10;36.90
14604;DHT22;7388;51.078;13.740;2023-03-01T01:10:03;2.00;36.90
14604;DHT22;7388;51.078;13.740;2023-03-01T01:12:28;2.00;37.00
14604;DHT22;7388;51.078;13.740;2023-03-01T01:14:54;2.00;37.20
14604;DHT22;7388;51.078;13.740;2023-03-01T01:17:20;2.00;37.20
14604;DHT22;7388;51.078;13.740;2023-03-01T01:19:46;2.00;37.30
14604;DHT22;7388;51.078;13.740;2023-03-01T01:22:12;1.90;37.40
14604;DHT22;7388;51.078;13.740;2023-03-01T01:24:37;1.90;37.30
14604;DHT22;7388;51.078;13.740;2023-03-01T01:27:03;1.90;37.20
14604;DHT22;7388;51.078;13.740;2023-03-01T01:29:29;1.90;37.20
14604;DHT22;7388;51.078;13.740;2023-03-01T01:31:54;1.90;37.10
14604;DHT22;7388;51.078;13.740;2023-03-01T01:34:21;1.90;37.70
14604;DHT22;7388;51.078;13.740;2023-03-01T01:36:53;1.80;37.10
14604;DHT22;7388;51.078;13.740;2023-03-01T01:39:20;1.80;37.10
14604;DHT22;7388;51.078;13.740;2023-03-01T01:41:46;1.80;37.10
14604;DHT22;7388;51.078;13.740;2023-03-01T01:46:56;1.80;37.00
14604;DHT22;7388;51.078;13.740;2023-03-01T01:52:07;1.70;37.20
14604;DHT22;7388;51.078;13.740;2023-03-01T01:57:09;1.60;37.30
14604;DHT22;7388;51.078;13.740;2023-03-01T01:59:36;1.60;37.30
14604;DHT22;7388;51.078;13.740;2023-03-01T02:02:03;1.60;37.20
14604;DHT22;7388;51.078;13.740;2023-03-01T02:04:31;1.60;37.10
14604;DHT22;7388;51.078;13.740;2023-03-01T02:07:01;1.60;37.10
14604;DHT22;7388;51.078;13.740;2023-03-01T02:09:30;1.50;37.00
14604;DHT22;7388;51.078;13.740;2023-03-01T02:11:58;1.50;37.10
14604;DHT22;7388;51.078;13.740;2023-03-01T02:14:24;1.50;37.10
14604;DHT22;7388;51.078;13.740;2023-03-01T02:16:50;1.50;37.10
14604;DHT22;7388;51.078;13.740;2023-03-01T02:22:28;1.50;37.70
14604;DHT22;7388;51.078;13.740;2023-03-01T02:27:55;1.40;37.20
14604;DHT22;7388;51.078;13.740;2023-03-01T02:30:24;1.40;37.10
14604;DHT22;7388;51.078;13.740;2023-03-01T02:32:52;1.40;37.00
14604;DHT22;7388;51.078;13.740;2023-03-01T02:35:19;1.40;37.10
14604;DHT22;7388;51.078;13.740;2023-03-01T02:37:45;1.40;37.00
14604;DHT22;7388;51.078;13.740;2023-03-01T02:40:15;1.40;36.90
14604;DHT22;7388;51.078;13.740;2023-03-01T02:42:51;1.40;37.00
14604;DHT22;7388;51.078;13.740;2023-03-01T02:45:17;1.30;36.90
14604;DHT22;7388;51.078;13.740;2023-03-01T02:47:43;1.20;36.90
14604;DHT22;7388;51.078;13.740;2023-03-01T02:53:01;1.10;37.30
14604;DHT22;7388;51.078;13.740;2023-03-01T02:55:30;1.00;37.50
14604;DHT22;7388;51.078;13.740;2023-03-01T02:57:56;1.10;38.10
14604;DHT22;7388;51.078;13.740;2023-03-01T03:00:46;1.10;37.40
14604;DHT22;7388;51.078;13.740;2023-03-01T03:03:17;1.10;37.50
14604;DHT22;7388;51.078;13.740;2023-03-01T03:05:43;1.00;37.40
14604;DHT22;7388;51.078;13.740;2023-03-01T03:08:09;1.10;37.40
14604;DHT22;7388;51.078;13.740;2023-03-01T03:10:38;1.10;37.30
14604;DHT22;7388;51.078;13.740;2023-03-01T03:13:11;1.10;37.30
14604;DHT22;7388;51.078;13.740;2023-03-01T03:15:37;1.10;37.30
14604;DHT22;7388;51.078;13.740;2023-03-01T03:18:10;1.00;37.20
14604;DHT22;7388;51.078;13.740;2023-03-01T03:20:39;1.00;37.00
14604;DHT22;7388;51.078;13.740;2023-03-01T03:23:05;1.00;37.10
14604;DHT22;7388;51.078;13.740;2023-03-01T03:25:31;1.00;37.10
14604;DHT22;7388;51.078;13.740;2023-03-01T03:27:57;1.00;37.10
14604;DHT22;7388;51.078;13.740;2023-03-01T03:30:29;1.00;37.20
14604;DHT22;7388;51.078;13.740;2023-03-01T03:32:56;1.00;37.20
14604;DHT22;7388;51.078;13.740;2023-03-01T03:35:28;1.00;37.10
14604;DHT22;7388;51.078;13.740;2023-03-01T03:37:56;0.90;37.20
14604;DHT22;7388;51.078;13.740;2023-03-01T03:40:50;0.90;37.20
14604;DHT22;7388;51.078;13.740;2023-03-01T03:43:21;0.80;37.20
14604;DHT22;7388;51.078;13.740;2023-03-01T03:45:49;0.80;37.40
14604;DHT22;7388;51.078;13.740;2023-03-01T03:48:16;0.90;37.40
14604;DHT22;7388;51.078;13.740;2023-03-01T03:50:47;0.80;37.30
14604;DHT22;7388;51.078;13.740;2023-03-01T03:53:12;0.80;37.40
14604;DHT22;7388;51.078;13.740;2023-03-01T03:55:39;0.80;37.40
14604;DHT22;7388;51.078;13.740;2023-03-01T03:58:07;0.80;37.40
14604;DHT22;7388;51.078;13.740;2023-03-01T04:00:39;0.80;37.20
14604;DHT22;7388;51.078;13.740;2023-03-01T04:03:06;0.80;37.10
14604;DHT22;7388;51.078;13.740;2023-03-01T04:05:32;0.80;37.00
14604;DHT22;7388;51.078;13.740;2023-03-01T04:07:58;0.80;37.00
14604;DHT22;7388;51.078;13.740;2023-03-01T04:10:28;0.70;37.10
14604;DHT22;7388;51.078;13.740;2023-03-01T04:12:54;0.70;37.10
14604;DHT22;7388;51.078;13.740;2023-03-01T04:15:22;0.70;37.10
14604;DHT22;7388;51.078;13.740;2023-03-01T04:17:50;0.70;37.00
14604;DHT22;7388;51.078;13.740;2023-03-01T04:20:20;0.70;37.20
14604;DHT22;7388;51.078;13.740;2023-03-01T04:22:57;0.70;37.10
14604;DHT22;7388;51.078;13.740;2023-03-01T04:25:24;0.70;37.00
14604;DHT22;7388;51.078;13.740;2023-03-01T04:27:49;0.70;37.10
14604;DHT22;7388;51.078;13.740;2023-03-01T04:30:15;0.70;37.00
14604;DHT22;7388;51.078;13.740;2023-03-01T04:32:41;0.70;37.00
14604;DHT22;7388;51.078;13.740;2023-03-01T04:35:07;0.70;37.00
14604;DHT22;7388;51.078;13.740;2023-03-01T04:37:33;0.60;36.90
14604;DHT22;7388;51.078;13.740;2023-03-01T04:40:00;0.60;37.00
14604;DHT22;7388;51.078;13.740;2023-03-01T04:42:26;0.60;37.00
14604;DHT22;7388;51.078;13.740;2023-03-01T04:44:52;0.50;37.20
14604;DHT22;7388;51.078;13.740;2023-03-01T04:47:18;0.50;37.30
14604;DHT22;7388;51.078;13.740;2023-03-01T04:49:43;0.50;37.50
14604;DHT22;7388;51.078;13.740;2023-03-01T04:52:09;0.50;37.50
14604;DHT22;7388;51.078;13.740;2023-03-01T04:54:35;0.50;37.40
14604;DHT22;7388;51.078;13.740;2023-03-01T04:57:02;0.60;37.20
14604;DHT22;7388;51.078;13.740;2023-03-01T04:59:28;0.60;37.10
14604;DHT22;7388;51.078;13.740;2023-03-01T05:01:55;0.60;37.00
14604;DHT22;7388;51.078;13.740;2023-03-01T05:04:24;0.60;36.80
14604;DHT22;7388;51.078;13.740;2023-03-01T05:06:50;0.60;36.80
14604;DHT22;7388;51.078;13.740;2023-03-01T05:09:17;0.50;37.00
14604;DHT22;7388;51.078;13.740;2023-03-01T05:11:42;0.50;37.00
14604;DHT22;7388;51.078;13.740;2023-03-01T05:14:09;0.50;36.80
14604;DHT22;7388;51.078;13.740;2023-03-01T05:16:35;0.50;36.90
14604;DHT22;7388;51.078;13.740;2023-03-01T05:19:03;0.50;36.70
14604;DHT22;7388;51.078;13.740;2023-03-01T05:21:40;0.50;36.70
14604;DHT22;7388;51.078;13.740;2023-03-01T05:24:26;0.50;36.70
14604;DHT22;7388;51.078;13.740;2023-03-01T05:26:52;0.50;36.70
14604;DHT22;7388;51.078;13.740;2023-03-01T05:29:22;0.40;36.70
14604;DHT22;7388;51.078;13.740;2023-03-01T05:31:54;0.40;36.70
14604;DHT22;7388;51.078;13.740;2023-03-01T05:34:28;0.40;36.70
14604;DHT22;7388;51.078;13.740;2023-03-01T05:36:55;0.30;36.80
14604;DHT22;7388;51.078;13.740;2023-03-01T05:39:22;0.30;36.80
14604;DHT22;7388;51.078;13.740;2023-03-01T05:41:51;0.30;36.90
14604;DHT22;7388;51.078;13.740;2023-03-01T05:44:18;0.30;36.80
14604;DHT22;7388;51.078;13.740;2023-03-01T05:46:43;0.30;37.00
14604;DHT22;7388;51.078;13.740;2023-03-01T05:49:10;0.30;37.00
14604;DHT22;7388;51.078;13.740;2023-03-01T05:51:36;0.30;37.00
14604;DHT22;7388;51.078;13.740;2023-03-01T05:54:02;0.30;37.60
14604;DHT22;7388;51.078;13.740;2023-03-01T05:56:28;0.30;36.90
14604;DHT22;7388;51.078;13.740;2023-03-01T05:58:54;0.30;36.90
14604;DHT22;7388;51.078;13.740;2023-03-01T06:01:20;0.30;36.90
14604;DHT22;7388;51.078;13.740;2023-03-01T06:03:46;0.30;37.20
14604;DHT22;7388;51.078;13.740;2023-03-01T06:06:11;0.30;37.40
14604;DHT22;7388;51.078;13.740;2023-03-01T06:08:37;0.20;37.20
14604;DHT22;7388;51.078;13.740;2023-03-01T06:11:03;0.30;37.30
14604;DHT22;7388;51.078;13.740;2023-03-01T06:13:28;0.30;37.10
14604;DHT22;7388;51.078;13.740;2023-03-01T06:15:55;0.30;37.00
14604;DHT22;7388;51.078;13.740;2023-03-01T06:18:21;0.30;37.10
14604;DHT22;7388;51.078;13.740;2023-03-01T06:20:53;0.40;37.10
14604;DHT22;7388;51.078;13.740;2023-03-01T06:23:19;0.40;37.20
14604;DHT22;7388;51.078;13.740;2023-03-01T06:25:45;0.40;37.30
14604;DHT22;7388;51.078;13.740;2023-03-01T06:28:10;0.40;37.40
14604;DHT22;7388;51.078;13.740;2023-03-01T06:30:36;0.50;37.50
14604;DHT22;7388;51.078;13.740;2023-03-01T06:33:02;0.50;37.50
14604;DHT22;7388;51.078;13.740;2023-03-01T06:35:31;0.60;37.50
14604;DHT22;7388;51.078;13.740;2023-03-01T06:37:58;0.70;37.80
14604;DHT22;7388;51.078;13.740;2023-03-01T06:40:24;0.80;37.80
14604;DHT22;7388;51.078;13.740;2023-03-01T06:42:51;0.90;37.70
14604;DHT22;7388;51.078;13.740;2023-03-01T06:45:19;0.90;37.70
14604;DHT22;7388;51.078;13.740;2023-03-01T06:47:45;1.00;37.50
14604;DHT22;7388;51.078;13.740;2023-03-01T06:50:11;1.10;37.50
14604;DHT22;7388;51.078;13.740;2023-03-01T06:52:37;1.20;37.50
14604;DHT22;7388;51.078;13.740;2023-03-01T06:55:04;1.30;37.60
14604;DHT22;7388;51.078;13.740;2023-03-01T06:57:30;1.40;37.60
14604;DHT22;7388;51.078;13.740;2023-03-01T06:59:56;1.50;37.70
14604;DHT22;7388;51.078;13.740;2023-03-01T07:02:22;1.60;37.70
14604;DHT22;7388;51.078;13.740;2023-03-01T07:04:51;1.70;37.90
14604;DHT22;7388;51.078;13.740;2023-03-01T07:07:17;1.90;38.00
14604;DHT22;7388;51.078;13.740;2023-03-01T07:09:44;2.00;38.10
14604;DHT22;7388;51.078;13.740;2023-03-01T07:12:10;2.20;38.20
14604;DHT22;7388;51.078;13.740;2023-03-01T07:14:36;2.30;38.40
14604;DHT22;7388;51.078;13.740;2023-03-01T07:17:01;2.40;38.50
14604;DHT22;7388;51.078;13.740;2023-03-01T07:19:27;2.60;38.50
14604;DHT22;7388;51.078;13.740;2023-03-01T07:21:53;2.70;38.60
14604;DHT22;7388;51.078;13.740;2023-03-01T07:24:19;2.90;38.50
14604;DHT22;7388;51.078;13.740;2023-03-01T07:26:49;3.10;38.40
14604;DHT22;7388;51.078;13.740;2023-03-01T07:29:15;3.30;38.40
14604;DHT22;7388;51.078;13.740;2023-03-01T07:31:41;3.40;38.00
14604;DHT22;7388;51.078;13.740;2023-03-01T07:34:06;3.60;37.90
14604;DHT22;7388;51.078;13.740;2023-03-01T07:36:32;3.70;37.70
14604;DHT22;7388;51.078;13.740;2023-03-01T07:38:58;3.80;37.30
14604;DHT22;7388;51.078;13.740;2023-03-01T07:41:24;3.80;36.50
14604;DHT22;7388;51.078;13.740;2023-03-01T07:43:50;3.80;36.80
14604;DHT22;7388;51.078;13.740;2023-03-01T07:46:16;4.00;36.70
14604;DHT22;7388;51.078;13.740;2023-03-01T07:48:43;4.10;36.50
14604;DHT22;7388;51.078;13.740;2023-03-01T07:51:09;4.20;36.70
14604;DHT22;7388;51.078;13.740;2023-03-01T07:53:35;4.30;36.40
14604;DHT22;7388;51.078;13.740;2023-03-01T07:56:12;4.50;36.10
14604;DHT22;7388;51.078;13.740;2023-03-01T07:58:40;4.60;35.90
14604;DHT22;7388;51.078;13.740;2023-03-01T08:01:11;4.70;35.30
14604;DHT22;7388;51.078;13.740;2023-03-01T08:03:37;4.80;35.90
14604;DHT22;7388;51.078;13.740;2023-03-01T08:06:05;5.00;35.90
14604;DHT22;7388;51.078;13.740;2023-03-01T08:08:31;5.20;35.60
14604;DHT22;7388;51.078;13.740;2023-03-01T08:10:58;5.30;34.50
14604;DHT22;7388;51.078;13.740;2023-03-01T08:13:24;5.30;34.70
14604;DHT22;7388;51.078;13.740;2023-03-01T08:15:50;5.40;35.60
14604;DHT22;7388;51.078;13.740;2023-03-01T08:18:16;5.60;36.10
14604;DHT22;7388;51.078;13.740;2023-03-01T08:20:42;5.90;36.40
14604;DHT22;7388;51.078;13.740;2023-03-01T08:23:08;6.20;36.10
14604;DHT22;7388;51.078;13.740;2023-03-01T08:25:33;6.40;35.80
14604;DHT22;7388;51.078;13.740;2023-03-01T08:27:59;6.60;35.90
14604;DHT22;7388;51.078;13.740;2023-03-01T08:30:25;6.80;34.90
14604;DHT22;7388;51.078;13.740;2023-03-01T08:32:51;6.90;34.30
14604;DHT22;7388;51.078;13.740;2023-03-01T08:35:17;7.20;34.60
14604;DHT22;7388;51.078;13.740;2023-03-01T08:37:43;7.40;33.50
14604;DHT22;7388;51.078;13.740;2023-03-01T08:40:09;7.50;33.40
14604;DHT22;7388;51.078;13.740;2023-03-01T08:42:36;7.70;32.90
14604;DHT22;7388;51.078;13.740;2023-03-01T08:45:03;7.90;33.20
14604;DHT22;7388;51.078;13.740;2023-03-01T08:47:29;8.00;32.70
14604;DHT22;7388;51.078;13.740;2023-03-01T08:49:55;8.20;32.90
14604;DHT22;7388;51.078;13.740;2023-03-01T08:52:21;8.30;31.50
14604;DHT22;7388;51.078;13.740;2023-03-01T08:54:50;8.40;32.20
14604;DHT22;7388;51.078;13.740;2023-03-01T08:57:15;8.50;31.80
14604;DHT22;7388;51.078;13.740;2023-03-01T08:59:41;8.70;32.20
14604;DHT22;7388;51.078;13.740;2023-03-01T09:02:14;8.90;31.10
14604;DHT22;7388;51.078;13.740;2023-03-01T09:04:41;9.00;29.20
14604;DHT22;7388;51.078;13.740;2023-03-01T09:07:08;8.90;29.50
14604;DHT22;7388;51.078;13.740;2023-03-01T09:09:35;9.00;28.90
14604;DHT22;7388;51.078;13.740;2023-03-01T09:12:01;8.90;29.40
14604;DHT22;7388;51.078;13.740;2023-03-01T09:14:27;8.90;30.00
14604;DHT22;7388;51.078;13.740;2023-03-01T09:16:53;9.10;31.20
14604;DHT22;7388;51.078;13.740;2023-03-01T09:19:18;9.20;30.30
14604;DHT22;7388;51.078;13.740;2023-03-01T09:21:44;9.40;30.10
14604;DHT22;7388;51.078;13.740;2023-03-01T09:24:24;9.50;29.10
14604;DHT22;7388;51.078;13.740;2023-03-01T09:26:53;9.40;28.60
14604;DHT22;7388;51.078;13.740;2023-03-01T09:29:19;9.30;29.40
14604;DHT22;7388;51.078;13.740;2023-03-01T09:31:45;9.30;30.90
14604;DHT22;7388;51.078;13.740;2023-03-01T09:34:11;9.60;31.50
14604;DHT22;7388;51.078;13.740;2023-03-01T09:36:37;9.70;30.30
14604;DHT22;7388;51.078;13.740;2023-03-01T09:39:03;9.80;29.40
14604;DHT22;7388;51.078;13.740;2023-03-01T09:41:51;9.90;28.80
14604;DHT22;7388;51.078;13.740;2023-03-01T09:47:19;9.80;29.40
14604;DHT22;7388;51.078;13.740;2023-03-01T09:50:17;9.80;28.90
14604;DHT22;7388;51.078;13.740;2023-03-01T09:53:04;9.90;28.80
14604;DHT22;7388;51.078;13.740;2023-03-01T09:58:28;9.80;27.20
14604;DHT22;7388;51.078;13.740;2023-03-01T10:00:56;9.70;27.60
14604;DHT22;7388;51.078;13.740;2023-03-01T10:03:34;9.80;29.40
14604;DHT22;7388;51.078;13.740;2023-03-01T10:06:11;10.20;30.60
14604;DHT22;7388;51.078;13.740;2023-03-01T10:08:57;10.50;30.20
14604;DHT22;7388;51.078;13.740;2023-03-01T10:11:31;10.80;29.60
14604;DHT22;7388;51.078;13.740;2023-03-01T10:14:12;10.90;28.10
14604;DHT22;7388;51.078;13.740;2023-03-01T10:16:56;10.90;27.80
14604;DHT22;7388;51.078;13.740;2023-03-01T10:19:38;11.00;27.20
14604;DHT22;7388;51.078;13.740;2023-03-01T10:22:25;11.10;26.50
14604;DHT22;7388;51.078;13.740;2023-03-01T10:24:54;11.00;27.10
14604;DHT22;7388;51.078;13.740;2023-03-01T10:28:00;11.20;27.40
14604;DHT22;7388;51.078;13.740;2023-03-01T10:30:29;11.30;26.50
14604;DHT22;7388;51.078;13.740;2023-03-01T10:32:57;11.30;25.60
14604;DHT22;7388;51.078;13.740;2023-03-01T10:35:25;11.50;27.80
14604;DHT22;7388;51.078;13.740;2023-03-01T10:38:18;11.80;28.40
14604;DHT22;7388;51.078;13.740;2023-03-01T10:41:06;12.00;26.00
14604;DHT22;7388;51.078;13.740;2023-03-01T10:43:55;12.00;25.20
14604;DHT22;7388;51.078;13.740;2023-03-01T10:49:20;12.10;25.20
14604;DHT22;7388;51.078;13.740;2023-03-01T10:51:50;12.30;26.80
14604;DHT22;7388;51.078;13.740;2023-03-01T10:54:22;12.40;25.80
14604;DHT22;7388;51.078;13.740;2023-03-01T10:56:52;12.50;25.00
14604;DHT22;7388;51.078;13.740;2023-03-01T10:59:38;12.60;24.90
14604;DHT22;7388;51.078;13.740;2023-03-01T11:02:20;12.70;25.70
14604;DHT22;7388;51.078;13.740;2023-03-01T11:07:22;13.00;25.10
14604;DHT22;7388;51.078;13.740;2023-03-01T11:09:48;13.10;25.20
14604;DHT22;7388;51.078;13.740;2023-03-01T11:12:15;13.40;26.00
14604;DHT22;7388;51.078;13.740;2023-03-01T11:14:57;13.70;26.00
14604;DHT22;7388;51.078;13.740;2023-03-01T11:17:30;14.00;24.60
14604;DHT22;7388;51.078;13.740;2023-03-01T11:22:34;14.30;23.80
14604;DHT22;7388;51.078;13.740;2023-03-01T11:25:01;14.40;25.00
14604;DHT22;7388;51.078;13.740;2023-03-01T11:27:28;14.60;24.60
14604;DHT22;7388;51.078;13.740;2023-03-01T11:30:15;14.80;23.60
14604;DHT22;7388;51.078;13.740;2023-03-01T11:35:32;15.30;20.80
14604;DHT22;7388;51.078;13.740;2023-03-01T11:43:58;16.50;21.50
14604;DHT22;7388;51.078;13.740;2023-03-01T12:20:14;18.30;17.80
14604;DHT22;7388;51.078;13.740;2023-03-01T12:23:07;18.50;17.30
14604;DHT22;7388;51.078;13.740;2023-03-01T12:31:59;18.90;19.00
14604;DHT22;7388;51.078;13.740;2023-03-01T12:42:55;18.80;18.80
14604;DHT22;7388;51.078;13.740;2023-03-01T12:48:31;18.20;19.30
14604;DHT22;7388;51.078;13.740;2023-03-01T12:51:03;18.00;19.00
14604;DHT22;7388;51.078;13.740;2023-03-01T12:53:57;17.80;17.70
14604;DHT22;7388;51.078;13.740;2023-03-01T12:56:27;17.80;18.70
14604;DHT22;7388;51.078;13.740;2023-03-01T12:59:11;17.90;19.20
14604;DHT22;7388;51.078;13.740;2023-03-01T13:10:01;18.50;15.90
14604;DHT22;7388;51.078;13.740;2023-03-01T13:17:50;19.10;14.90
14604;DHT22;7388;51.078;13.740;2023-03-01T13:20:21;19.10;15.10
14604;DHT22;7388;51.078;13.740;2023-03-01T13:22:47;19.40;17.20
14604;DHT22;7388;51.078;13.740;2023-03-01T13:25:19;19.60;16.70
14604;DHT22;7388;51.078;13.740;2023-03-01T13:27:46;19.90;16.70
14604;DHT22;7388;51.078;13.740;2023-03-01T13:35:44;20.90;15.90
14604;DHT22;7388;51.078;13.740;2023-03-01T13:41:09;21.30;16.50
14604;DHT22;7388;51.078;13.740;2023-03-01T13:43:38;21.40;16.30
14604;DHT22;7388;51.078;13.740;2023-03-01T13:46:20;21.50;16.40
14604;DHT22;7388;51.078;13.740;2023-03-01T13:48:50;21.60;15.30
14604;DHT22;7388;51.078;13.740;2023-03-01T13:51:30;21.60;15.80
14604;DHT22;7388;51.078;13.740;2023-03-01T13:53:57;21.60;15.90
14604;DHT22;7388;51.078;13.740;2023-03-01T13:56:26;21.70;15.80
14604;DHT22;7388;51.078;13.740;2023-03-01T13:58:59;21.70;15.70
14604;DHT22;7388;51.078;13.740;2023-03-01T14:01:31;21.50;13.00
14604;DHT22;7388;51.078;13.740;2023-03-01T14:03:58;20.60;13.10
14604;DHT22;7388;51.078;13.740;2023-03-01T14:06:29;19.80;13.90
14604;DHT22;7388;51.078;13.740;2023-03-01T14:09:05;19.20;15.00
14604;DHT22;7388;51.078;13.740;2023-03-01T14:19:57;17.40;13.90
14604;DHT22;7388;51.078;13.740;2023-03-01T14:22:24;17.00;15.00
14604;DHT22;7388;51.078;13.740;2023-03-01T14:24:59;16.60;14.90
14604;DHT22;7388;51.078;13.740;2023-03-01T14:27:38;16.30;14.90
14604;DHT22;7388;51.078;13.740;2023-03-01T14:32:41;15.80;16.50
14604;DHT22;7388;51.078;13.740;2023-03-01T14:35:24;15.80;16.40
14604;DHT22;7388;51.078;13.740;2023-03-01T14:37:50;15.70;16.50
14604;DHT22;7388;51.078;13.740;2023-03-01T14:43:37;15.70;16.40
14604;DHT22;7388;51.078;13.740;2023-03-01T14:46:03;15.70;16.50
14604;DHT22;7388;51.078;13.740;2023-03-01T14:48:30;15.60;16.30
14604;DHT22;7388;51.078;13.740;2023-03-01T14:50:57;15.70;17.60
14604;DHT22;7388;51.078;13.740;2023-03-01T14:53:27;15.70;17.30
14604;DHT22;7388;51.078;13.740;2023-03-01T14:56:00;15.70;16.80
14604;DHT22;7388;51.078;13.740;2023-03-01T14:58:32;15.70;17.50
14604;DHT22;7388;51.078;13.740;2023-03-01T15:01:01;15.60;18.10
14604;DHT22;7388;51.078;13.740;2023-03-01T15:03:41;15.40;17.40
14604;DHT22;7388;51.078;13.740;2023-03-01T15:06:15;15.30;18.90
14604;DHT22;7388;51.078;13.740;2023-03-01T15:08:44;15.20;19.20
14604;DHT22;7388;51.078;13.740;2023-03-01T15:11:18;15.30;18.90
14604;DHT22;7388;51.078;13.740;2023-03-01T15:13:47;15.20;18.10
14604;DHT22;7388;51.078;13.740;2023-03-01T15:16:19;15.00;17.90
14604;DHT22;7388;51.078;13.740;2023-03-01T15:21:26;14.90;19.30
14604;DHT22;7388;51.078;13.740;2023-03-01T15:26:50;15.10;19.40
14604;DHT22;7388;51.078;13.740;2023-03-01T15:29:21;15.00;19.00
14604;DHT22;7388;51.078;13.740;2023-03-01T15:32:03;14.90;19.40
14604;DHT22;7388;51.078;13.740;2023-03-01T15:34:37;14.80;19.10
14604;DHT22;7388;51.078;13.740;2023-03-01T15:37:06;14.50;18.90
14604;DHT22;7388;51.078;13.740;2023-03-01T15:39:54;14.30;19.60
14604;DHT22;7388;51.078;13.740;2023-03-01T15:45:28;13.90;19.60
14604;DHT22;7388;51.078;13.740;2023-03-01T15:47:58;13.80;19.80
14604;DHT22;7388;51.078;13.740;2023-03-01T15:50:34;13.70;19.80
14604;DHT22;7388;51.078;13.740;2023-03-01T15:53:01;13.60;20.00
14604;DHT22;7388;51.078;13.740;2023-03-01T15:55:31;13.50;19.60
14604;DHT22;7388;51.078;13.740;2023-03-01T15:58:27;13.50;20.30
14604;DHT22;7388;51.078;13.740;2023-03-01T16:00:53;13.30;21.20
14604;DHT22;7388;51.078;13.740;2023-03-01T16:03:22;13.10;21.50
14604;DHT22;7388;51.078;13.740;2023-03-01T16:05:49;13.00;21.20
14604;DHT22;7388;51.078;13.740;2023-03-01T16:08:16;12.90;21.50
14604;DHT22;7388;51.078;13.740;2023-03-01T16:10:42;13.10;21.50
14604;DHT22;7388;51.078;13.740;2023-03-01T16:13:12;13.30;20.80
14604;DHT22;7388;51.078;13.740;2023-03-01T16:15:38;13.40;20.00
14604;DHT22;7388;51.078;13.740;2023-03-01T16:18:05;13.30;21.00
14604;DHT22;7388;51.078;13.740;2023-03-01T16:20:33;13.20;20.70
14604;DHT22;7388;51.078;13.740;2023-03-01T16:23:02;13.10;21.10
14604;DHT22;7388;51.078;13.740;2023-03-01T16:25:29;13.00;21.40
14604;DHT22;7388;51.078;13.740;2023-03-01T16:27:54;12.80;21.50
14604;DHT22;7388;51.078;13.740;2023-03-01T16:30:22;12.60;21.00
14604;DHT22;7388;51.078;13.740;2023-03-01T16:32:48;12.40;21.30
14604;DHT22;7388;51.078;13.740;2023-03-01T16:35:17;12.10;21.80
14604;DHT22;7388;51.078;13.740;2023-03-01T16:37:43;12.00;21.60
14604;DHT22;7388;51.078;13.740;2023-03-01T16:40:29;11.70;22.50
14604;DHT22;7388;51.078;13.740;2023-03-01T16:42:56;11.50;22.80
14604;DHT22;7388;51.078;13.740;2023-03-01T16:45:25;11.30;23.80
14604;DHT22;7388;51.078;13.740;2023-03-01T16:47:52;11.20;23.90
14604;DHT22;7388;51.078;13.740;2023-03-01T16:50:18;11.00;23.50
14604;DHT22;7388;51.078;13.740;2023-03-01T16:52:44;10.90;23.80
14604;DHT22;7388;51.078;13.740;2023-03-01T16:55:10;10.70;24.20
14604;DHT22;7388;51.078;13.740;2023-03-01T16:57:39;10.60;24.70
14604;DHT22;7388;51.078;13.740;2023-03-01T17:00:07;10.50;24.40
14604;DHT22;7388;51.078;13.740;2023-03-01T17:02:35;10.40;24.60
14604;DHT22;7388;51.078;13.740;2023-03-01T17:05:01;10.30;25.00
14604;DHT22;7388;51.078;13.740;2023-03-01T17:07:29;10.20;24.80
14604;DHT22;7388;51.078;13.740;2023-03-01T17:09:59;10.00;25.10
14604;DHT22;7388;51.078;13.740;2023-03-01T17:12:25;9.90;25.30
14604;DHT22;7388;51.078;13.740;2023-03-01T17:14:50;9.80;25.50
14604;DHT22;7388;51.078;13.740;2023-03-01T17:17:16;9.70;25.80
14604;DHT22;7388;51.078;13.740;2023-03-01T17:19:42;9.50;26.50
14604;DHT22;7388;51.078;13.740;2023-03-01T17:22:10;9.40;26.70
14604;DHT22;7388;51.078;13.740;2023-03-01T17:24:37;9.30;27.10
14604;DHT22;7388;51.078;13.740;2023-03-01T17:27:04;9.10;27.00
14604;DHT22;7388;51.078;13.740;2023-03-01T17:29:30;9.00;27.00
14604;DHT22;7388;51.078;13.740;2023-03-01T17:31:56;9.00;26.90
14604;DHT22;7388;51.078;13.740;2023-03-01T17:34:23;9.00;27.10
14604;DHT22;7388;51.078;13.740;2023-03-01T17:36:49;8.90;27.50
14604;DHT22;7388;51.078;13.740;2023-03-01T17:39:17;8.80;27.40
14604;DHT22;7388;51.078;13.740;2023-03-01T17:41:45;8.70;27.40
14604;DHT22;7388;51.078;13.740;2023-03-01T17:44:11;8.60;27.80
14604;DHT22;7388;51.078;13.740;2023-03-01T17:46:37;8.60;28.10
14604;DHT22;7388;51.078;13.740;2023-03-01T17:49:03;8.40;28.30
14604;DHT22;7388;51.078;13.740;2023-03-01T17:51:29;8.40;28.30
14604;DHT22;7388;51.078;13.740;2023-03-01T17:53:55;8.30;28.60
14604;DHT22;7388;51.078;13.740;2023-03-01T17:56:20;8.20;28.80
14604;DHT22;7388;51.078;13.740;2023-03-01T17:58:46;8.10;28.90
14604;DHT22;7388;51.078;13.740;2023-03-01T18:01:17;8.10;29.10
14604;DHT22;7388;51.078;13.740;2023-03-01T18:03:43;8.00;29.00
14604;DHT22;7388;51.078;13.740;2023-03-01T18:06:21;8.00;29.10
14604;DHT22;7388;51.078;13.740;2023-03-01T18:08:47;7.90;29.30